createdAt,value
2023-03-16T00:00:19.357Z,5.90
2023-03-16T00:02:46.938Z,5.97
2023-03-16T00:05:14.007Z,6.03
2023-03-16T00:07:41.990Z,6.28
2023-03-16T00:10:08.988Z,5.78
2023-03-16T00:12:35.376Z,6.20
2023-03-16T00:15:02.113Z,7.70
2023-03-16T00:17:28.501Z,6.30
2023-03-16T00:19:55.700Z,5.28
2023-03-16T00:22:22.945Z,6.18
2023-03-16T00:24:49.352Z,5.90
2023-03-16T00:27:16.027Z,4.75
2023-03-16T00:29:47.248Z,5.40
2023-03-16T00:32:17.690Z,6.25
2023-03-16T00:34:49.668Z,5.70
2023-03-16T00:37:17.416Z,6.82
2023-03-16T00:39:44.585Z,6.88
2023-03-16T00:42:11.541Z,8.77
2023-03-16T00:44:38.048Z,7.65
2023-03-16T00:47:05.319Z,9.68
2023-03-16T00:49:34.817Z,9.80
2023-03-16T00:52:05.074Z,9.03
2023-03-16T00:54:32.725Z,7.88
2023-03-16T00:57:02.439Z,7.03
2023-03-16T00:59:31.607Z,6.57
2023-03-16T01:01:57.997Z,6.47
2023-03-16T01:04:24.390Z,5.97
2023-03-16T01:06:51.737Z,6.68
2023-03-16T01:09:18.115Z,5.88
2023-03-16T01:11:45.075Z,6.70
2023-03-16T01:14:11.964Z,7.75
2023-03-16T01:16:38.438Z,5.13
2023-03-16T01:19:04.821Z,6.30
2023-03-16T01:21:36.962Z,6.57
2023-03-16T01:24:04.514Z,5.45
2023-03-16T01:26:33.985Z,6.28
2023-03-16T01:29:00.515Z,7.53
2023-03-16T01:31:28.143Z,6.22
2023-03-16T01:33:54.835Z,5.45
2023-03-16T01:36:22.667Z,6.43
2023-03-16T01:38:49.298Z,5.97
2023-03-16T01:41:15.820Z,5.47
2023-03-16T01:43:42.560Z,6.40
2023-03-16T01:46:20.450Z,5.35
2023-03-16T01:48:55.769Z,5.30
2023-03-16T01:51:25.163Z,5.25
2023-03-16T01:53:53.894Z,6.32
2023-03-16T01:56:25.736Z,6.65
2023-03-16T01:58:54.432Z,5.28
2023-03-16T02:01:20.961Z,5.45
2023-03-16T02:03:47.345Z,5.63
2023-03-16T02:06:18.955Z,5.97
2023-03-16T02:08:47.135Z,5.57
2023-03-16T02:11:18.106Z,6.35
2023-03-16T02:13:45.545Z,6.22
2023-03-16T02:16:12.320Z,5.13
2023-03-16T02:18:38.840Z,6.10
2023-03-16T02:21:19.442Z,5.40
2023-03-16T02:26:22.999Z,7.78
2023-03-16T02:28:58.560Z,5.18
2023-03-16T02:31:25.046Z,6.47
2023-03-16T02:33:52.762Z,5.35
2023-03-16T02:36:19.288Z,5.20
2023-03-16T02:38:46.512Z,4.85
2023-03-16T02:41:17.498Z,5.13
2023-03-16T02:43:46.010Z,4.90
2023-03-16T02:46:13.714Z,4.90
2023-03-16T02:48:49.499Z,4.40
2023-03-16T02:51:15.848Z,6.10
2023-03-16T02:53:42.285Z,4.65
2023-03-16T02:56:08.784Z,5.45
2023-03-16T02:58:35.239Z,5.18
2023-03-16T03:01:01.591Z,4.20
2023-03-16T03:03:28.273Z,5.20
2023-03-16T03:05:54.876Z,4.55
2023-03-16T03:08:22.815Z,4.90
2023-03-16T03:10:49.729Z,4.90
2023-03-16T03:13:16.347Z,5.22
2023-03-16T03:15:42.781Z,5.20
2023-03-16T03:18:09.163Z,4.03
2023-03-16T03:20:35.559Z,4.30
2023-03-16T03:23:03.041Z,4.93
2023-03-16T03:25:29.687Z,4.68
2023-03-16T03:27:56.136Z,5.05
2023-03-16T03:30:24.378Z,4.63
2023-03-16T03:32:52.451Z,4.38
2023-03-16T03:35:19.101Z,5.88
2023-03-16T03:37:45.490Z,4.40
2023-03-16T03:40:13.103Z,5.15
2023-03-16T03:42:40.554Z,4.90
2023-03-16T03:45:07.887Z,5.00
2023-03-16T03:47:34.298Z,6.05
2023-03-16T03:50:00.899Z,4.63
2023-03-16T03:52:28.239Z,4.37
2023-03-16T03:54:54.579Z,5.20
2023-03-16T03:57:21.982Z,5.50
2023-03-16T03:59:48.506Z,4.95
2023-03-16T04:02:15.148Z,4.43
2023-03-16T04:04:42.232Z,6.30
2023-03-16T04:07:09.175Z,5.82
2023-03-16T04:09:35.661Z,4.78
2023-03-16T04:12:03.000Z,5.55
2023-03-16T04:14:29.987Z,5.45
2023-03-16T04:16:56.804Z,5.25
2023-03-16T04:19:23.874Z,5.80
2023-03-16T04:21:50.696Z,5.38
2023-03-16T04:24:17.156Z,6.45
2023-03-16T04:26:46.424Z,6.07
2023-03-16T04:29:14.427Z,5.43
2023-03-16T04:31:42.401Z,5.57
2023-03-16T04:34:09.054Z,5.47
2023-03-16T04:36:35.846Z,5.18
2023-03-16T04:39:02.379Z,5.28
2023-03-16T04:41:28.825Z,4.70
2023-03-16T04:43:55.219Z,5.35
2023-03-16T04:46:21.641Z,6.03
2023-03-16T04:48:48.065Z,5.28
2023-03-16T04:51:14.433Z,6.03
2023-03-16T04:53:40.831Z,5.18
2023-03-16T04:56:08.240Z,5.13
2023-03-16T04:58:34.965Z,5.57
2023-03-16T05:01:02.334Z,5.97
2023-03-16T05:03:28.764Z,6.03
2023-03-16T05:05:55.290Z,6.55
2023-03-16T05:08:21.778Z,6.50
2023-03-16T05:10:48.522Z,5.15
2023-03-16T05:13:15.144Z,6.45
2023-03-16T05:15:41.632Z,5.75
2023-03-16T05:18:08.073Z,5.70
2023-03-16T05:20:35.028Z,6.57
2023-03-16T05:23:01.417Z,6.28
2023-03-16T05:25:27.758Z,6.85
2023-03-16T05:27:54.399Z,5.20
2023-03-16T05:30:20.997Z,5.95
2023-03-16T05:32:47.438Z,5.85
2023-03-16T05:35:13.968Z,5.60
2023-03-16T05:37:40.860Z,5.75
2023-03-16T05:40:16.963Z,6.65
2023-03-16T05:42:44.396Z,5.27
2023-03-16T05:45:12.474Z,6.85
2023-03-16T05:47:38.887Z,5.47
2023-03-16T05:50:06.009Z,5.37
2023-03-16T05:52:32.396Z,6.13
2023-03-16T05:54:59.012Z,6.80
2023-03-16T05:57:25.385Z,6.32
2023-03-16T05:59:52.882Z,5.38
2023-03-16T06:02:19.263Z,5.13
2023-03-16T06:04:45.784Z,5.53
2023-03-16T06:07:12.340Z,5.53
2023-03-16T06:09:38.805Z,5.18
2023-03-16T06:12:05.245Z,6.28
2023-03-16T06:14:31.621Z,4.95
2023-03-16T06:16:58.026Z,5.18
2023-03-16T06:19:28.568Z,6.03
2023-03-16T06:24:21.445Z,6.18
2023-03-16T06:26:47.933Z,5.00
2023-03-16T06:29:14.305Z,6.10
2023-03-16T06:31:40.935Z,5.05
2023-03-16T06:34:07.949Z,5.50
2023-03-16T06:36:39.703Z,5.40
2023-03-16T06:39:09.670Z,5.22
2023-03-16T06:41:36.063Z,4.53
2023-03-16T06:44:02.590Z,5.93
2023-03-16T06:46:28.938Z,5.10
2023-03-16T06:49:08.794Z,4.03
2023-03-16T06:51:35.286Z,4.72
2023-03-16T06:54:01.726Z,5.85
2023-03-16T06:56:28.185Z,4.82
2023-03-16T06:58:54.604Z,4.68
2023-03-16T07:01:26.380Z,3.95
2023-03-16T07:03:55.596Z,4.63
2023-03-16T07:06:22.080Z,4.55
2023-03-16T07:08:48.536Z,4.15
2023-03-16T07:11:15.025Z,4.38
2023-03-16T07:13:42.401Z,4.60
2023-03-16T07:16:08.846Z,3.58
2023-03-16T07:18:38.033Z,3.60
2023-03-16T07:21:04.564Z,2.85
2023-03-16T07:27:31.252Z,2.30
2023-03-16T07:30:13.762Z,3.00
2023-03-16T08:34:46.142Z,0.70
2023-03-16T08:37:16.961Z,1.15
2023-03-16T08:39:45.887Z,1.08
2023-03-16T08:42:19.027Z,0.80
2023-03-16T08:44:45.418Z,1.30
2023-03-16T08:47:12.227Z,0.55
2023-03-16T08:49:46.012Z,1.15
2023-03-16T08:52:12.981Z,0.63
2023-03-16T08:54:39.933Z,0.45
2023-03-16T08:57:07.116Z,0.85
2023-03-16T09:02:44.605Z,0.60
2023-03-16T09:05:33.259Z,0.70
2023-03-16T09:08:00.337Z,1.33
2023-03-16T09:10:55.574Z,0.60
2023-03-16T09:16:15.751Z,0.50
2023-03-16T09:19:00.216Z,0.95
2023-03-16T09:21:26.705Z,0.82
2023-03-16T09:23:58.576Z,0.50
2023-03-16T09:26:25.121Z,0.77
2023-03-16T09:29:16.693Z,0.20
2023-03-16T09:31:43.328Z,0.30
2023-03-16T09:34:10.598Z,0.50
2023-03-16T09:36:46.360Z,0.30
2023-03-16T09:39:13.433Z,0.13
2023-03-16T09:41:54.353Z,0.43
2023-03-16T09:44:30.750Z,0.60
2023-03-16T09:46:59.513Z,0.20
2023-03-16T09:49:32.499Z,0.28
2023-03-16T09:52:18.849Z,0.47
2023-03-16T09:55:09.472Z,0.10
2023-03-16T09:57:37.164Z,0.40
2023-03-16T10:00:49.207Z,0.28
2023-03-16T13:56:47.394Z,1.13
2023-03-16T13:59:14.221Z,0.60
2023-03-16T14:01:43.785Z,0.80
2023-03-16T14:04:13.704Z,0.57
2023-03-16T14:06:41.362Z,0.50
2023-03-16T14:09:17.853Z,0.95
2023-03-16T14:11:49.771Z,0.70
2023-03-16T14:14:17.271Z,0.57
2023-03-16T14:16:44.051Z,0.82
2023-03-16T14:19:13.535Z,0.65
2023-03-16T14:21:43.816Z,1.20
2023-03-16T14:26:57.114Z,0.82
2023-03-16T14:29:26.801Z,0.77
2023-03-16T14:31:54.408Z,1.23
2023-03-16T14:34:22.678Z,1.30
2023-03-16T14:36:51.529Z,1.27
2023-03-16T14:39:20.213Z,1.00
2023-03-16T14:41:52.736Z,1.35
2023-03-16T14:44:21.416Z,1.05
2023-03-16T14:46:48.180Z,2.03
2023-03-16T14:49:26.726Z,0.90
2023-03-16T14:51:57.865Z,1.27
2023-03-16T14:54:24.344Z,1.13
2023-03-16T14:56:52.313Z,2.33
2023-03-16T14:59:21.805Z,0.80
2023-03-16T15:01:52.513Z,1.52
2023-03-16T15:04:25.747Z,0.85
2023-03-16T15:06:54.686Z,0.60
2023-03-16T15:09:34.408Z,0.80
2023-03-16T15:12:00.849Z,0.68
2023-03-16T15:14:51.201Z,0.90
2023-03-16T15:19:45.370Z,0.93
2023-03-16T15:22:12.589Z,0.73
2023-03-16T15:24:39.347Z,1.40
2023-03-16T15:27:10.270Z,1.23
2023-03-16T15:29:36.747Z,1.10
2023-03-16T15:32:03.316Z,1.38
2023-03-16T15:34:29.727Z,1.42
2023-03-16T15:36:56.303Z,0.90
2023-03-16T15:39:24.963Z,1.35
2023-03-16T15:41:55.384Z,1.80
2023-03-16T15:46:51.448Z,1.95
2023-03-16T15:49:18.964Z,1.33
2023-03-16T15:51:45.645Z,1.23
2023-03-16T15:54:13.414Z,0.98
2023-03-16T15:56:53.338Z,1.38
2023-03-16T15:59:22.169Z,0.98
2023-03-16T16:01:48.916Z,0.77
2023-03-16T16:04:20.047Z,1.40
2023-03-16T16:06:47.564Z,1.52
2023-03-16T16:09:13.977Z,1.38
2023-03-16T16:11:54.835Z,1.50
2023-03-16T16:14:23.625Z,0.98
2023-03-16T16:16:50.340Z,1.33
2023-03-16T16:19:16.921Z,1.20
2023-03-16T16:21:43.438Z,1.38
2023-03-16T16:24:10.720Z,1.42
2023-03-16T16:26:49.848Z,1.23
2023-03-16T16:29:19.525Z,1.17
2023-03-16T16:31:46.118Z,1.88
2023-03-16T16:34:13.557Z,1.50
2023-03-16T16:36:39.961Z,1.20
2023-03-16T16:39:06.769Z,1.80
2023-03-16T16:41:34.058Z,1.80
2023-03-16T16:44:07.261Z,2.13
2023-03-16T16:46:42.723Z,3.80
2023-03-16T16:49:18.130Z,3.45
2023-03-16T16:51:44.608Z,2.85
2023-03-16T16:54:18.511Z,2.00
2023-03-16T16:56:46.412Z,2.00
2023-03-16T16:59:21.194Z,2.30
2023-03-16T17:01:48.244Z,1.95
2023-03-16T17:04:19.029Z,2.40
2023-03-16T17:06:46.117Z,2.03
2023-03-16T17:09:14.458Z,1.90
2023-03-16T17:11:41.991Z,2.00
2023-03-16T17:14:08.973Z,1.40
2023-03-16T17:16:39.792Z,2.67
2023-03-16T17:19:07.049Z,2.40
2023-03-16T17:21:33.586Z,1.98
2023-03-16T17:24:04.719Z,1.70
2023-03-16T17:26:34.398Z,2.63
2023-03-16T17:29:00.843Z,18.23
2023-03-16T17:31:31.082Z,12.68
2023-03-16T17:33:58.337Z,8.00
2023-03-16T17:36:25.033Z,12.43
2023-03-16T17:38:52.069Z,3.20
2023-03-16T17:41:23.534Z,2.10
2023-03-16T17:43:56.723Z,7.40
2023-03-16T17:46:28.656Z,3.70
2023-03-16T17:48:56.188Z,5.68
2023-03-16T17:51:26.061Z,15.32
2023-03-16T17:53:53.039Z,28.88
2023-03-16T17:56:24.741Z,22.35
2023-03-16T17:59:09.455Z,7.53
2023-03-16T18:01:40.788Z,6.05
2023-03-16T18:04:17.559Z,4.03
2023-03-16T18:06:47.011Z,3.20
2023-03-16T18:09:17.808Z,9.03
2023-03-16T18:11:48.027Z,3.17
2023-03-16T18:14:24.101Z,3.75
2023-03-16T18:16:50.829Z,3.15
2023-03-16T18:19:21.554Z,2.75
2023-03-16T18:21:47.928Z,3.38
2023-03-16T18:24:15.895Z,2.58
2023-03-16T18:26:42.383Z,3.15
2023-03-16T18:29:08.757Z,2.17
2023-03-16T18:31:35.788Z,2.55
2023-03-16T18:34:03.496Z,2.95
2023-03-16T18:36:32.085Z,2.30
2023-03-16T18:38:59.671Z,2.30
2023-03-16T18:41:27.625Z,1.88
2023-03-16T18:43:55.510Z,2.95
2023-03-16T18:46:42.345Z,2.88
2023-03-16T18:49:14.947Z,2.60
2023-03-16T18:51:42.418Z,3.33
2023-03-16T18:54:22.413Z,2.15
2023-03-16T18:56:49.737Z,2.50
2023-03-16T18:59:16.622Z,2.35
2023-03-16T19:01:43.587Z,3.53
2023-03-16T19:04:18.125Z,2.90
2023-03-16T19:06:44.638Z,2.53
2023-03-16T19:09:14.667Z,2.28
2023-03-16T19:11:42.784Z,2.40
2023-03-16T19:14:16.396Z,2.90
2023-03-16T19:16:43.774Z,2.55
2023-03-16T19:19:10.424Z,2.40
2023-03-16T19:21:37.724Z,3.67
2023-03-16T19:24:05.648Z,2.50
2023-03-16T19:26:32.903Z,3.38
2023-03-16T19:28:59.580Z,4.07
2023-03-16T19:31:27.343Z,3.80
2023-03-16T19:33:54.478Z,3.45
2023-03-16T19:36:25.695Z,3.45
2023-03-16T19:38:54.178Z,3.08
2023-03-16T19:41:46.511Z,3.03
2023-03-16T19:44:13.150Z,2.78
2023-03-16T19:46:41.159Z,2.60
2023-03-16T19:49:17.223Z,2.50
2023-03-16T19:51:46.325Z,3.50
2023-03-16T19:54:30.253Z,3.08
2023-03-16T19:57:01.242Z,3.08
2023-03-16T19:59:31.199Z,4.40
2023-03-16T20:02:18.692Z,3.30
2023-03-16T20:04:46.534Z,3.00
2023-03-16T20:07:19.166Z,2.42
2023-03-16T20:09:48.187Z,2.83
2023-03-16T20:12:22.637Z,4.28
2023-03-16T20:14:52.481Z,3.10
2023-03-16T20:17:31.060Z,2.97
2023-03-16T20:19:57.668Z,2.65
2023-03-16T20:22:26.047Z,2.65
2023-03-16T20:24:54.292Z,3.38
2023-03-16T20:27:22.265Z,4.25
2023-03-16T20:29:48.993Z,3.17
2023-03-16T20:32:21.869Z,2.60
2023-03-16T20:34:48.277Z,3.00
2023-03-16T20:37:25.120Z,2.88
2023-03-16T20:39:52.343Z,3.13
2023-03-16T20:42:19.813Z,2.85
2023-03-16T20:44:46.643Z,2.70
2023-03-16T20:47:14.896Z,3.03
2023-03-16T20:49:41.330Z,3.28
2023-03-16T20:52:21.814Z,3.28
2023-03-16T20:57:24.794Z,3.25
2023-03-16T20:59:53.856Z,4.03
2023-03-16T21:02:25.434Z,3.67
2023-03-16T21:04:51.804Z,2.72
2023-03-16T21:07:18.122Z,3.13
2023-03-16T21:09:50.039Z,2.72
2023-03-16T21:12:24.821Z,3.20
2023-03-16T21:14:52.109Z,2.80
2023-03-16T21:17:26.848Z,2.20
2023-03-16T21:19:55.073Z,3.10
2023-03-16T21:22:26.662Z,2.45
2023-03-16T21:24:53.362Z,3.08
2023-03-16T21:27:27.620Z,2.10
2023-03-16T21:29:55.177Z,3.10
2023-03-16T21:32:22.742Z,2.55
2023-03-16T21:34:49.348Z,3.92
2023-03-16T21:37:17.160Z,2.60
2023-03-16T21:39:52.468Z,2.70
2023-03-16T21:42:19.091Z,2.20
2023-03-16T21:44:45.739Z,2.40
2023-03-16T21:47:28.805Z,2.65
2023-03-16T21:49:56.061Z,2.20
2023-03-16T21:52:28.198Z,2.78
2023-03-16T21:54:56.867Z,3.15
2023-03-16T21:57:23.399Z,2.80
2023-03-16T21:59:50.482Z,2.28
2023-03-16T22:02:20.052Z,2.92
2023-03-16T22:04:47.805Z,2.88
2023-03-16T22:07:14.637Z,3.08
2023-03-16T22:09:41.194Z,2.40
2023-03-16T22:12:12.262Z,2.42
2023-03-16T22:14:39.264Z,2.63
2023-03-16T22:17:15.635Z,3.35
2023-03-16T22:19:42.162Z,3.13
2023-03-16T22:22:13.174Z,2.58
2023-03-16T22:24:39.599Z,3.10
2023-03-16T22:27:14.346Z,2.67
2023-03-16T22:29:44.384Z,3.08
2023-03-16T22:32:15.863Z,3.75
2023-03-16T22:34:56.550Z,2.90
2023-03-16T22:37:27.509Z,2.75
2023-03-16T22:40:00.219Z,3.38
2023-03-16T22:42:28.662Z,2.33
2023-03-16T22:44:56.172Z,3.13
2023-03-16T22:47:27.392Z,3.25
2023-03-16T22:49:53.935Z,3.38
2023-03-16T22:52:22.595Z,3.15
2023-03-16T22:54:49.061Z,3.10
2023-03-16T22:57:16.464Z,3.33
2023-03-16T22:59:43.991Z,4.15
2023-03-16T23:02:13.810Z,3.55
2023-03-16T23:04:40.350Z,2.83
2023-03-16T23:07:13.548Z,3.35
2023-03-16T23:09:42.468Z,3.58
2023-03-16T23:12:19.884Z,3.47
2023-03-16T23:14:46.323Z,3.00
2023-03-16T23:17:17.934Z,3.80
2023-03-16T23:19:45.686Z,3.75
2023-03-16T23:22:12.259Z,3.90
2023-03-16T23:24:39.724Z,3.42
2023-03-16T23:27:14.840Z,3.65
2023-03-16T23:29:42.303Z,4.22
2023-03-16T23:32:09.728Z,4.90
2023-03-16T23:34:36.552Z,4.03
2023-03-16T23:37:03.004Z,3.83
2023-03-16T23:39:29.481Z,4.10
2023-03-16T23:41:56.285Z,3.83
2023-03-16T23:44:25.526Z,3.70
2023-03-16T23:46:52.484Z,4.53
2023-03-16T23:49:38.678Z,4.07
2023-03-16T23:52:05.424Z,4.63
2023-03-16T23:54:32.708Z,4.35
2023-03-16T23:57:00.298Z,4.82
2023-03-16T23:59:27.388Z,4.28
